Marwood, Pennsylvania
Current Conditions -  °F | °C
As of 7:35 AM on Saturday 01 Nov 2014 (Local Time) from KBTP Reporting Station
Overcast Overcast  
Wind Chill: 36°   Ceiling: 3200
Heat Index: 39°   Visibility: 10mi
Dew Point: 36°   Wind: 5mph
Humidity: 87%   Direction: 360°N
Pressure: 29.98"   Gusts: NA
Location:  40.7876°N, 79.7479°W
Report Text: KBTP 011135Z AUTO 36004KT 10SM FEW008 SCT016 OVC032 04/02 A2998 RMK AO1
Loading
Personal Weather Stations






























Interactive Weather Map
Tropical Storm Tracking
New forecast layout! Learn more

10-Day Weather Forecast

Advertisements
Track Severe Weather on mobile